Ilse, Colorado
Current Conditions -  °F | °C
As of 1:55 PM on Tuesday 21 Oct 2014 (Local Time) from K1V6 Reporting Station
Clear Clear  
Wind Chill: 73°   Ceiling: Unl
Heat Index: 73°   Visibility: 10mi
Dew Point: 37°   Wind: 8mph
Humidity: 27%   Direction: 120°ESE
Pressure: 29.99"   Gusts: NA
Location:  38.533°N, 105.389°W
Report Text: K1V6 211955Z AUTO 12007KT 10SM CLR 23/03 A2999 RMK AO2
Loading
Personal Weather Stations






























Interactive Weather Map
Tropical Storm Tracking
New forecast layout! Learn more

10-Day Weather Forecast

Advertisements
Track Severe Weather on mobile